sensor_id;sensor_type;location;lat;lon;timestamp;temperature;humidity
15596;DHT22;7898;48.658;9.068;2023-01-30T00:01:14;-2.00;99.90
15596;DHT22;7898;48.658;9.068;2023-01-30T00:03:46;-2.00;99.90
15596;DHT22;7898;48.658;9.068;2023-01-30T00:06:13;-2.00;99.90
15596;DHT22;7898;48.658;9.068;2023-01-30T00:08:40;-2.10;99.90
15596;DHT22;7898;48.658;9.068;2023-01-30T00:11:09;-2.00;99.90
15596;DHT22;7898;48.658;9.068;2023-01-30T00:13:37;-2.00;99.90
15596;DHT22;7898;48.658;9.068;2023-01-30T00:16:05;-2.10;99.90
15596;DHT22;7898;48.658;9.068;2023-01-30T00:18:34;-2.10;99.90
15596;DHT22;7898;48.658;9.068;2023-01-30T00:21:05;-1.40;99.90
15596;DHT22;7898;48.658;9.068;2023-01-30T00:23:33;-2.20;99.90
15596;DHT22;7898;48.658;9.068;2023-01-30T00:26:00;-1.40;99.90
15596;DHT22;7898;48.658;9.068;2023-01-30T00:28:27;-2.20;99.90
15596;DHT22;7898;48.658;9.068;2023-01-30T00:30:54;-2.00;99.90
15596;DHT22;7898;48.658;9.068;2023-01-30T00:33:23;-2.20;99.90
15596;DHT22;7898;48.658;9.068;2023-01-30T00:35:51;-2.10;99.90
15596;DHT22;7898;48.658;9.068;2023-01-30T00:38:20;-1.30;99.90
15596;DHT22;7898;48.658;9.068;2023-01-30T00:40:48;-1.30;99.90
15596;DHT22;7898;48.658;9.068;2023-01-30T00:43:17;-2.00;99.90
15596;DHT22;7898;48.658;9.068;2023-01-30T00:46:03;-2.00;99.90
15596;DHT22;7898;48.658;9.068;2023-01-30T00:48:48;-2.00;99.90
15596;DHT22;7898;48.658;9.068;2023-01-30T00:51:15;-1.90;99.90
15596;DHT22;7898;48.658;9.068;2023-01-30T00:53:43;-1.90;99.90
15596;DHT22;7898;48.658;9.068;2023-01-30T00:56:10;-1.90;99.90
15596;DHT22;7898;48.658;9.068;2023-01-30T00:58:37;-1.90;99.90
15596;DHT22;7898;48.658;9.068;2023-01-30T01:01:04;-2.00;99.90
15596;DHT22;7898;48.658;9.068;2023-01-30T01:03:30;-1.60;99.90
15596;DHT22;7898;48.658;9.068;2023-01-30T01:05:57;-2.00;99.90
15596;DHT22;7898;48.658;9.068;2023-01-30T01:08:24;-2.00;99.90
15596;DHT22;7898;48.658;9.068;2023-01-30T01:10:52;-2.10;99.90
15596;DHT22;7898;48.658;9.068;2023-01-30T01:13:19;-2.10;99.90
15596;DHT22;7898;48.658;9.068;2023-01-30T01:15:46;-2.10;99.90
15596;DHT22;7898;48.658;9.068;2023-01-30T01:18:13;-2.20;99.90
15596;DHT22;7898;48.658;9.068;2023-01-30T01:20:40;-1.20;99.90
15596;DHT22;7898;48.658;9.068;2023-01-30T01:23:09;-2.20;99.90
15596;DHT22;7898;48.658;9.068;2023-01-30T01:25:36;-2.30;99.90
15596;DHT22;7898;48.658;9.068;2023-01-30T01:28:04;-1.90;99.90
15596;DHT22;7898;48.658;9.068;2023-01-30T01:30:31;-1.60;99.90
15596;DHT22;7898;48.658;9.068;2023-01-30T01:32:58;-2.30;99.90
15596;DHT22;7898;48.658;9.068;2023-01-30T01:35:25;-2.30;99.90
15596;DHT22;7898;48.658;9.068;2023-01-30T01:37:52;-1.70;99.90
15596;DHT22;7898;48.658;9.068;2023-01-30T01:40:21;-2.40;99.90
15596;DHT22;7898;48.658;9.068;2023-01-30T01:43:14;-2.40;99.90
15596;DHT22;7898;48.658;9.068;2023-01-30T01:45:41;-1.80;99.90
15596;DHT22;7898;48.658;9.068;2023-01-30T01:48:13;-2.40;99.90
15596;DHT22;7898;48.658;9.068;2023-01-30T01:50:44;-2.50;99.90
15596;DHT22;7898;48.658;9.068;2023-01-30T01:53:14;-2.50;99.90
15596;DHT22;7898;48.658;9.068;2023-01-30T01:55:43;-2.50;99.90
15596;DHT22;7898;48.658;9.068;2023-01-30T01:58:14;-2.50;99.90
15596;DHT22;7898;48.658;9.068;2023-01-30T02:00:42;-2.50;99.90
15596;DHT22;7898;48.658;9.068;2023-01-30T02:03:11;-3.30;99.90
15596;DHT22;7898;48.658;9.068;2023-01-30T02:05:42;-2.40;99.90
15596;DHT22;7898;48.658;9.068;2023-01-30T02:08:13;-2.40;99.90
15596;DHT22;7898;48.658;9.068;2023-01-30T02:10:47;-2.40;99.90
15596;DHT22;7898;48.658;9.068;2023-01-30T02:13:19;-2.50;99.90
15596;DHT22;7898;48.658;9.068;2023-01-30T02:15:46;-1.40;99.90
15596;DHT22;7898;48.658;9.068;2023-01-30T02:18:13;-2.50;99.90
15596;DHT22;7898;48.658;9.068;2023-01-30T02:23:54;-2.50;99.90
15596;DHT22;7898;48.658;9.068;2023-01-30T02:26:47;-1.90;99.90
15596;DHT22;7898;48.658;9.068;2023-01-30T02:32:26;-2.50;99.90
15596;DHT22;7898;48.658;9.068;2023-01-30T02:35:01;-2.50;99.90
15596;DHT22;7898;48.658;9.068;2023-01-30T02:37:43;-2.50;99.90
15596;DHT22;7898;48.658;9.068;2023-01-30T02:40:29;-2.40;99.90
15596;DHT22;7898;48.658;9.068;2023-01-30T02:43:05;-2.30;99.90
15596;DHT22;7898;48.658;9.068;2023-01-30T02:45:38;-2.40;99.90
15596;DHT22;7898;48.658;9.068;2023-01-30T02:48:14;-2.50;99.90
15596;DHT22;7898;48.658;9.068;2023-01-30T02:50:45;-2.60;99.90
15596;DHT22;7898;48.658;9.068;2023-01-30T02:53:13;-2.70;99.90
15596;DHT22;7898;48.658;9.068;2023-01-30T02:55:41;-2.60;99.90
15596;DHT22;7898;48.658;9.068;2023-01-30T02:58:09;-2.60;99.90
15596;DHT22;7898;48.658;9.068;2023-01-30T03:01:00;-2.60;99.90
15596;DHT22;7898;48.658;9.068;2023-01-30T03:03:42;-2.70;99.90
15596;DHT22;7898;48.658;9.068;2023-01-30T03:06:30;-2.80;99.90
15596;DHT22;7898;48.658;9.068;2023-01-30T03:09:08;-2.80;99.90
15596;DHT22;7898;48.658;9.068;2023-01-30T03:11:45;-2.80;99.90
15596;DHT22;7898;48.658;9.068;2023-01-30T03:14:18;-2.10;99.90
15596;DHT22;7898;48.658;9.068;2023-01-30T03:16:49;-2.80;99.90
15596;DHT22;7898;48.658;9.068;2023-01-30T03:19:20;-2.80;99.90
15596;DHT22;7898;48.658;9.068;2023-01-30T03:21:47;-2.10;99.90
15596;DHT22;7898;48.658;9.068;2023-01-30T03:24:14;-2.70;99.90
15596;DHT22;7898;48.658;9.068;2023-01-30T03:26:44;-2.80;99.90
15596;DHT22;7898;48.658;9.068;2023-01-30T03:29:12;-2.90;99.90
15596;DHT22;7898;48.658;9.068;2023-01-30T03:31:39;-3.00;99.90
15596;DHT22;7898;48.658;9.068;2023-01-30T03:34:06;-3.00;99.90
15596;DHT22;7898;48.658;9.068;2023-01-30T03:36:34;-3.00;99.90
15596;DHT22;7898;48.658;9.068;2023-01-30T03:39:02;-2.90;99.90
15596;DHT22;7898;48.658;9.068;2023-01-30T03:41:29;-2.80;99.90
15596;DHT22;7898;48.658;9.068;2023-01-30T03:43:56;-2.80;99.90
15596;DHT22;7898;48.658;9.068;2023-01-30T03:46:22;-2.70;99.90
15596;DHT22;7898;48.658;9.068;2023-01-30T03:48:49;-2.60;99.90
15596;DHT22;7898;48.658;9.068;2023-01-30T03:51:16;-2.60;99.90
15596;DHT22;7898;48.658;9.068;2023-01-30T03:53:44;-2.30;99.90
15596;DHT22;7898;48.658;9.068;2023-01-30T03:56:11;-2.50;99.90
15596;DHT22;7898;48.658;9.068;2023-01-30T03:58:38;-2.40;99.90
15596;DHT22;7898;48.658;9.068;2023-01-30T04:01:05;-2.40;99.90
15596;DHT22;7898;48.658;9.068;2023-01-30T04:03:32;-2.30;99.90
15596;DHT22;7898;48.658;9.068;2023-01-30T04:05:59;-1.70;99.90
15596;DHT22;7898;48.658;9.068;2023-01-30T04:08:26;-2.00;99.90
15596;DHT22;7898;48.658;9.068;2023-01-30T04:10:54;-2.30;99.90
15596;DHT22;7898;48.658;9.068;2023-01-30T04:13:21;-2.30;99.90
15596;DHT22;7898;48.658;9.068;2023-01-30T04:15:48;-2.20;99.90
15596;DHT22;7898;48.658;9.068;2023-01-30T04:18:15;-1.80;99.90
15596;DHT22;7898;48.658;9.068;2023-01-30T04:20:41;-2.10;99.90
15596;DHT22;7898;48.658;9.068;2023-01-30T04:23:08;-2.10;99.90
15596;DHT22;7898;48.658;9.068;2023-01-30T04:25:35;-1.40;99.90
15596;DHT22;7898;48.658;9.068;2023-01-30T04:28:04;-2.10;99.90
15596;DHT22;7898;48.658;9.068;2023-01-30T04:30:31;-2.00;99.90
15596;DHT22;7898;48.658;9.068;2023-01-30T04:32:57;-2.00;99.90
15596;DHT22;7898;48.658;9.068;2023-01-30T04:35:24;-2.00;99.90
15596;DHT22;7898;48.658;9.068;2023-01-30T04:37:51;-1.90;99.90
15596;DHT22;7898;48.658;9.068;2023-01-30T04:40:18;-1.90;99.90
15596;DHT22;7898;48.658;9.068;2023-01-30T04:42:45;-1.80;99.90
15596;DHT22;7898;48.658;9.068;2023-01-30T04:45:13;-1.80;99.90
15596;DHT22;7898;48.658;9.068;2023-01-30T04:47:40;-1.80;99.90
15596;DHT22;7898;48.658;9.068;2023-01-30T04:50:08;-1.80;99.90
15596;DHT22;7898;48.658;9.068;2023-01-30T04:52:35;-1.70;99.90
15596;DHT22;7898;48.658;9.068;2023-01-30T04:55:02;-1.70;99.90
15596;DHT22;7898;48.658;9.068;2023-01-30T04:57:30;-1.70;99.90
15596;DHT22;7898;48.658;9.068;2023-01-30T04:59:57;-1.60;99.90
15596;DHT22;7898;48.658;9.068;2023-01-30T05:02:25;-1.50;99.90
15596;DHT22;7898;48.658;9.068;2023-01-30T05:04:52;-1.50;99.90
15596;DHT22;7898;48.658;9.068;2023-01-30T05:07:18;-1.50;99.90
15596;DHT22;7898;48.658;9.068;2023-01-30T05:09:45;-1.40;99.90
15596;DHT22;7898;48.658;9.068;2023-01-30T05:12:12;-0.80;99.90
15596;DHT22;7898;48.658;9.068;2023-01-30T05:14:39;-1.20;99.90
15596;DHT22;7898;48.658;9.068;2023-01-30T05:17:06;-1.20;99.90
15596;DHT22;7898;48.658;9.068;2023-01-30T05:19:35;-1.20;99.90
15596;DHT22;7898;48.658;9.068;2023-01-30T05:22:02;-1.20;99.90
15596;DHT22;7898;48.658;9.068;2023-01-30T05:24:28;-0.60;99.90
15596;DHT22;7898;48.658;9.068;2023-01-30T05:26:55;-1.10;99.90
15596;DHT22;7898;48.658;9.068;2023-01-30T05:29:22;-0.80;99.90
15596;DHT22;7898;48.658;9.068;2023-01-30T05:31:49;-1.10;99.90
15596;DHT22;7898;48.658;9.068;2023-01-30T05:34:16;-1.10;99.90
15596;DHT22;7898;48.658;9.068;2023-01-30T05:36:51;-1.10;99.90
15596;DHT22;7898;48.658;9.068;2023-01-30T05:39:18;-1.10;99.90
15596;DHT22;7898;48.658;9.068;2023-01-30T05:41:45;-0.40;99.90
15596;DHT22;7898;48.658;9.068;2023-01-30T05:44:11;-0.40;99.90
15596;DHT22;7898;48.658;9.068;2023-01-30T05:46:38;-1.00;99.90
15596;DHT22;7898;48.658;9.068;2023-01-30T05:49:05;-0.40;99.90
15596;DHT22;7898;48.658;9.068;2023-01-30T05:51:32;-1.10;99.90
15596;DHT22;7898;48.658;9.068;2023-01-30T05:54:01;-0.50;99.90
15596;DHT22;7898;48.658;9.068;2023-01-30T05:56:27;-1.10;99.90
15596;DHT22;7898;48.658;9.068;2023-01-30T05:58:58;-0.70;99.90
15596;DHT22;7898;48.658;9.068;2023-01-30T06:01:26;-1.10;99.90
15596;DHT22;7898;48.658;9.068;2023-01-30T06:03:54;-1.00;99.90
15596;DHT22;7898;48.658;9.068;2023-01-30T06:06:21;-1.10;99.90
15596;DHT22;7898;48.658;9.068;2023-01-30T06:08:52;-1.10;99.90
15596;DHT22;7898;48.658;9.068;2023-01-30T06:11:21;-1.00;99.90
15596;DHT22;7898;48.658;9.068;2023-01-30T06:13:48;-1.10;99.90
15596;DHT22;7898;48.658;9.068;2023-01-30T06:16:16;-1.20;99.90
15596;DHT22;7898;48.658;9.068;2023-01-30T06:18:44;-1.10;99.90
15596;DHT22;7898;48.658;9.068;2023-01-30T06:21:11;-0.40;99.90
15596;DHT22;7898;48.658;9.068;2023-01-30T06:23:39;-1.10;99.90
15596;DHT22;7898;48.658;9.068;2023-01-30T06:26:06;-1.20;99.90
15596;DHT22;7898;48.658;9.068;2023-01-30T06:28:35;-1.00;99.90
15596;DHT22;7898;48.658;9.068;2023-01-30T06:31:04;-0.50;99.90
15596;DHT22;7898;48.658;9.068;2023-01-30T06:33:30;-0.40;99.90
15596;DHT22;7898;48.658;9.068;2023-01-30T06:35:57;-1.20;99.90
15596;DHT22;7898;48.658;9.068;2023-01-30T06:38:24;-1.20;99.90
15596;DHT22;7898;48.658;9.068;2023-01-30T06:40:51;-1.20;99.90
15596;DHT22;7898;48.658;9.068;2023-01-30T06:43:18;-1.20;99.90
15596;DHT22;7898;48.658;9.068;2023-01-30T06:45:46;-1.20;99.90
15596;DHT22;7898;48.658;9.068;2023-01-30T06:48:13;-1.20;99.90
15596;DHT22;7898;48.658;9.068;2023-01-30T06:50:40;-1.10;99.90
15596;DHT22;7898;48.658;9.068;2023-01-30T06:53:07;-0.20;99.90
15596;DHT22;7898;48.658;9.068;2023-01-30T06:55:35;-1.10;99.90
15596;DHT22;7898;48.658;9.068;2023-01-30T06:58:03;-1.00;99.90
15596;DHT22;7898;48.658;9.068;2023-01-30T07:00:31;-1.10;99.90
15596;DHT22;7898;48.658;9.068;2023-01-30T07:03:00;-1.10;99.90
15596;DHT22;7898;48.658;9.068;2023-01-30T07:05:27;-1.10;99.90
15596;DHT22;7898;48.658;9.068;2023-01-30T07:07:54;-1.10;99.90
15596;DHT22;7898;48.658;9.068;2023-01-30T07:10:21;-1.20;99.90
15596;DHT22;7898;48.658;9.068;2023-01-30T07:12:50;-1.20;99.90
15596;DHT22;7898;48.658;9.068;2023-01-30T07:15:17;-0.80;99.90
15596;DHT22;7898;48.658;9.068;2023-01-30T07:17:44;-1.00;99.90
15596;DHT22;7898;48.658;9.068;2023-01-30T07:20:12;-1.20;99.90
15596;DHT22;7898;48.658;9.068;2023-01-30T07:22:39;-1.10;99.90
15596;DHT22;7898;48.658;9.068;2023-01-30T07:25:07;-1.00;99.90
15596;DHT22;7898;48.658;9.068;2023-01-30T07:27:34;-0.90;99.90
15596;DHT22;7898;48.658;9.068;2023-01-30T07:30:01;-0.50;99.90
15596;DHT22;7898;48.658;9.068;2023-01-30T07:32:28;-0.80;99.90
15596;DHT22;7898;48.658;9.068;2023-01-30T07:34:55;-0.50;99.90
15596;DHT22;7898;48.658;9.068;2023-01-30T07:37:23;-0.70;99.90
15596;DHT22;7898;48.658;9.068;2023-01-30T07:39:50;-0.70;99.90
15596;DHT22;7898;48.658;9.068;2023-01-30T07:42:16;-0.70;99.90
15596;DHT22;7898;48.658;9.068;2023-01-30T07:44:43;-0.60;99.90
15596;DHT22;7898;48.658;9.068;2023-01-30T07:47:10;-0.60;99.90
15596;DHT22;7898;48.658;9.068;2023-01-30T07:49:37;-0.60;99.90
15596;DHT22;7898;48.658;9.068;2023-01-30T07:52:04;-0.60;99.90
15596;DHT22;7898;48.658;9.068;2023-01-30T07:54:33;-0.50;99.90
15596;DHT22;7898;48.658;9.068;2023-01-30T07:56:59;-0.50;99.90
15596;DHT22;7898;48.658;9.068;2023-01-30T07:59:26;-0.40;99.90
15596;DHT22;7898;48.658;9.068;2023-01-30T08:01:53;-0.40;99.90
15596;DHT22;7898;48.658;9.068;2023-01-30T08:04:21;-0.40;99.90
15596;DHT22;7898;48.658;9.068;2023-01-30T08:06:48;-0.40;99.90
15596;DHT22;7898;48.658;9.068;2023-01-30T08:09:15;-0.40;99.90
15596;DHT22;7898;48.658;9.068;2023-01-30T08:11:43;-0.30;99.90
15596;DHT22;7898;48.658;9.068;2023-01-30T08:14:10;0.00;99.90
15596;DHT22;7898;48.658;9.068;2023-01-30T08:16:37;-0.10;99.90
15596;DHT22;7898;48.658;9.068;2023-01-30T08:19:05;0.20;99.90
15596;DHT22;7898;48.658;9.068;2023-01-30T08:21:32;0.40;99.90
15596;DHT22;7898;48.658;9.068;2023-01-30T08:23:59;0.60;99.90
15596;DHT22;7898;48.658;9.068;2023-01-30T08:26:26;0.60;99.90
15596;DHT22;7898;48.658;9.068;2023-01-30T08:28:54;0.60;99.90
15596;DHT22;7898;48.658;9.068;2023-01-30T08:31:21;0.40;99.90
15596;DHT22;7898;48.658;9.068;2023-01-30T08:33:48;0.20;99.90
15596;DHT22;7898;48.658;9.068;2023-01-30T08:36:15;0.20;99.90
15596;DHT22;7898;48.658;9.068;2023-01-30T08:38:42;0.10;99.90
15596;DHT22;7898;48.658;9.068;2023-01-30T08:41:09;0.20;99.90
15596;DHT22;7898;48.658;9.068;2023-01-30T08:43:36;0.20;99.90
15596;DHT22;7898;48.658;9.068;2023-01-30T08:46:05;0.20;99.90
15596;DHT22;7898;48.658;9.068;2023-01-30T08:48:32;0.20;99.90
15596;DHT22;7898;48.658;9.068;2023-01-30T08:50:59;0.30;99.90
15596;DHT22;7898;48.658;9.068;2023-01-30T08:53:26;0.40;99.90
15596;DHT22;7898;48.658;9.068;2023-01-30T08:55:53;1.10;99.90
15596;DHT22;7898;48.658;9.068;2023-01-30T08:58:20;0.80;99.90
15596;DHT22;7898;48.658;9.068;2023-01-30T09:00:47;1.30;99.90
15596;DHT22;7898;48.658;9.068;2023-01-30T09:03:17;1.80;99.90
15596;DHT22;7898;48.658;9.068;2023-01-30T09:05:44;2.50;99.90
15596;DHT22;7898;48.658;9.068;2023-01-30T09:08:11;3.20;99.90
15596;DHT22;7898;48.658;9.068;2023-01-30T09:10:38;3.50;99.90
15596;DHT22;7898;48.658;9.068;2023-01-30T09:13:08;3.50;99.90
15596;DHT22;7898;48.658;9.068;2023-01-30T09:15:35;5.00;99.90
15596;DHT22;7898;48.658;9.068;2023-01-30T09:18:02;5.70;99.90
15596;DHT22;7898;48.658;9.068;2023-01-30T09:20:31;6.70;99.90
15596;DHT22;7898;48.658;9.068;2023-01-30T09:22:58;7.40;99.90
15596;DHT22;7898;48.658;9.068;2023-01-30T09:25:25;7.40;99.90
15596;DHT22;7898;48.658;9.068;2023-01-30T09:27:52;7.30;99.90
15596;DHT22;7898;48.658;9.068;2023-01-30T09:30:19;7.30;99.90
15596;DHT22;7898;48.658;9.068;2023-01-30T09:32:47;7.70;99.90
15596;DHT22;7898;48.658;9.068;2023-01-30T09:35:20;7.70;99.90
15596;DHT22;7898;48.658;9.068;2023-01-30T09:37:49;8.10;99.90
15596;DHT22;7898;48.658;9.068;2023-01-30T09:40:19;7.40;99.90
15596;DHT22;7898;48.658;9.068;2023-01-30T09:43:10;6.60;99.90
15596;DHT22;7898;48.658;9.068;2023-01-30T09:45:47;5.60;99.90
15596;DHT22;7898;48.658;9.068;2023-01-30T09:48:21;4.90;99.90
15596;DHT22;7898;48.658;9.068;2023-01-30T09:51:20;4.40;99.90
15596;DHT22;7898;48.658;9.068;2023-01-30T09:54:16;3.90;99.90
15596;DHT22;7898;48.658;9.068;2023-01-30T09:56:54;3.40;99.90
15596;DHT22;7898;48.658;9.068;2023-01-30T09:59:26;2.90;99.90
15596;DHT22;7898;48.658;9.068;2023-01-30T10:01:59;2.70;99.90
15596;DHT22;7898;48.658;9.068;2023-01-30T10:04:33;2.50;99.90
15596;DHT22;7898;48.658;9.068;2023-01-30T10:07:06;2.60;99.90
15596;DHT22;7898;48.658;9.068;2023-01-30T10:09:44;2.70;99.90
15596;DHT22;7898;48.658;9.068;2023-01-30T10:12:23;2.60;99.90
15596;DHT22;7898;48.658;9.068;2023-01-30T10:15:13;2.70;99.90
15596;DHT22;7898;48.658;9.068;2023-01-30T10:17:50;2.70;99.90
15596;DHT22;7898;48.658;9.068;2023-01-30T10:20:40;2.70;99.90
15596;DHT22;7898;48.658;9.068;2023-01-30T10:23:29;2.80;99.90
15596;DHT22;7898;48.658;9.068;2023-01-30T10:26:03;2.90;99.90
15596;DHT22;7898;48.658;9.068;2023-01-30T10:28:34;3.00;99.90
15596;DHT22;7898;48.658;9.068;2023-01-30T10:31:11;3.10;99.90
15596;DHT22;7898;48.658;9.068;2023-01-30T10:33:42;3.20;99.90
15596;DHT22;7898;48.658;9.068;2023-01-30T10:36:12;3.30;99.90
15596;DHT22;7898;48.658;9.068;2023-01-30T10:38:45;3.30;99.90
15596;DHT22;7898;48.658;9.068;2023-01-30T10:41:20;3.40;99.90
15596;DHT22;7898;48.658;9.068;2023-01-30T10:43:56;3.40;99.90
15596;DHT22;7898;48.658;9.068;2023-01-30T10:46:47;3.40;99.90
15596;DHT22;7898;48.658;9.068;2023-01-30T10:49:21;3.30;99.90
15596;DHT22;7898;48.658;9.068;2023-01-30T10:51:57;3.30;99.90
15596;DHT22;7898;48.658;9.068;2023-01-30T10:54:31;3.30;99.90
15596;DHT22;7898;48.658;9.068;2023-01-30T10:57:12;3.20;99.90
15596;DHT22;7898;48.658;9.068;2023-01-30T10:59:49;3.20;99.90
15596;DHT22;7898;48.658;9.068;2023-01-30T11:02:23;3.10;99.90
15596;DHT22;7898;48.658;9.068;2023-01-30T11:04:56;2.60;99.90
15596;DHT22;7898;48.658;9.068;2023-01-30T11:07:24;3.00;99.90
15596;DHT22;7898;48.658;9.068;2023-01-30T11:09:51;2.90;99.90
15596;DHT22;7898;48.658;9.068;2023-01-30T11:12:20;2.90;99.90
15596;DHT22;7898;48.658;9.068;2023-01-30T11:14:52;2.80;99.90
15596;DHT22;7898;48.658;9.068;2023-01-30T11:17:26;2.70;99.90
15596;DHT22;7898;48.658;9.068;2023-01-30T11:19:55;2.60;99.90
15596;DHT22;7898;48.658;9.068;2023-01-30T11:22:23;2.60;99.90
15596;DHT22;7898;48.658;9.068;2023-01-30T11:25:00;2.60;99.90
15596;DHT22;7898;48.658;9.068;2023-01-30T11:27:30;2.70;99.90
15596;DHT22;7898;48.658;9.068;2023-01-30T11:30:13;2.70;99.90
15596;DHT22;7898;48.658;9.068;2023-01-30T11:32:41;2.80;99.90
15596;DHT22;7898;48.658;9.068;2023-01-30T11:35:29;2.90;99.90
15596;DHT22;7898;48.658;9.068;2023-01-30T11:38:11;2.90;99.90
15596;DHT22;7898;48.658;9.068;2023-01-30T11:40:39;2.90;99.90
15596;DHT22;7898;48.658;9.068;2023-01-30T11:43:12;3.00;99.90
15596;DHT22;7898;48.658;9.068;2023-01-30T11:45:41;3.10;99.90
15596;DHT22;7898;48.658;9.068;2023-01-30T11:48:15;2.90;99.90
15596;DHT22;7898;48.658;9.068;2023-01-30T11:50:46;2.80;99.90
15596;DHT22;7898;48.658;9.068;2023-01-30T11:53:23;2.70;99.90
15596;DHT22;7898;48.658;9.068;2023-01-30T11:55:56;2.80;99.90
15596;DHT22;7898;48.658;9.068;2023-01-30T11:58:29;2.60;99.90
15596;DHT22;7898;48.658;9.068;2023-01-30T12:00:57;2.70;99.90
15596;DHT22;7898;48.658;9.068;2023-01-30T12:03:26;2.70;99.90
15596;DHT22;7898;48.658;9.068;2023-01-30T12:05:54;2.70;99.90
15596;DHT22;7898;48.658;9.068;2023-01-30T12:08:25;2.80;99.90
15596;DHT22;7898;48.658;9.068;2023-01-30T12:10:54;2.80;99.90
15596;DHT22;7898;48.658;9.068;2023-01-30T12:13:29;2.70;99.90
15596;DHT22;7898;48.658;9.068;2023-01-30T12:16:15;2.60;99.90
15596;DHT22;7898;48.658;9.068;2023-01-30T12:18:50;2.60;99.90
15596;DHT22;7898;48.658;9.068;2023-01-30T12:21:27;2.60;99.90
15596;DHT22;7898;48.658;9.068;2023-01-30T12:24:04;2.60;99.90
15596;DHT22;7898;48.658;9.068;2023-01-30T12:26:36;2.60;99.90
15596;DHT22;7898;48.658;9.068;2023-01-30T12:29:19;2.50;99.90
15596;DHT22;7898;48.658;9.068;2023-01-30T12:31:53;2.60;99.90
15596;DHT22;7898;48.658;9.068;2023-01-30T12:34:24;2.50;99.90
15596;DHT22;7898;48.658;9.068;2023-01-30T12:37:02;2.60;99.90
15596;DHT22;7898;48.658;9.068;2023-01-30T12:39:40;2.50;99.90
15596;DHT22;7898;48.658;9.068;2023-01-30T12:42:27;2.50;99.90
15596;DHT22;7898;48.658;9.068;2023-01-30T12:45:05;2.40;99.90
15596;DHT22;7898;48.658;9.068;2023-01-30T12:47:51;2.40;99.90
15596;DHT22;7898;48.658;9.068;2023-01-30T12:50:30;2.40;99.90
15596;DHT22;7898;48.658;9.068;2023-01-30T12:53:25;2.30;99.90
15596;DHT22;7898;48.658;9.068;2023-01-30T12:56:05;2.30;99.90
15596;DHT22;7898;48.658;9.068;2023-01-30T12:58:40;2.40;99.90
15596;DHT22;7898;48.658;9.068;2023-01-30T13:01:21;2.50;99.90
15596;DHT22;7898;48.658;9.068;2023-01-30T13:04:01;2.40;99.90
15596;DHT22;7898;48.658;9.068;2023-01-30T13:06:56;2.40;99.90
15596;DHT22;7898;48.658;9.068;2023-01-30T13:09:37;2.40;99.90
15596;DHT22;7898;48.658;9.068;2023-01-30T13:12:11;2.30;99.90
15596;DHT22;7898;48.658;9.068;2023-01-30T13:14:43;2.60;99.90
15596;DHT22;7898;48.658;9.068;2023-01-30T13:17:32;2.40;99.90
15596;DHT22;7898;48.658;9.068;2023-01-30T13:20:08;2.40;99.90
15596;DHT22;7898;48.658;9.068;2023-01-30T13:22:46;2.40;99.90
15596;DHT22;7898;48.658;9.068;2023-01-30T13:25:22;2.30;99.90
15596;DHT22;7898;48.658;9.068;2023-01-30T13:27:55;2.40;99.90
15596;DHT22;7898;48.658;9.068;2023-01-30T13:30:24;2.30;99.90
15596;DHT22;7898;48.658;9.068;2023-01-30T13:32:56;2.20;99.90
15596;DHT22;7898;48.658;9.068;2023-01-30T13:35:28;2.10;99.90
15596;DHT22;7898;48.658;9.068;2023-01-30T13:37:57;2.10;99.90
15596;DHT22;7898;48.658;9.068;2023-01-30T13:40:27;2.00;99.90
15596;DHT22;7898;48.658;9.068;2023-01-30T13:42:59;1.90;99.90
15596;DHT22;7898;48.658;9.068;2023-01-30T13:45:30;1.90;99.90
15596;DHT22;7898;48.658;9.068;2023-01-30T13:48:12;1.80;99.90
15596;DHT22;7898;48.658;9.068;2023-01-30T13:51:01;1.80;99.90
15596;DHT22;7898;48.658;9.068;2023-01-30T13:53:39;1.80;99.90
15596;DHT22;7898;48.658;9.068;2023-01-30T13:56:14;1.70;99.90
15596;DHT22;7898;48.658;9.068;2023-01-30T13:58:49;1.80;99.90
15596;DHT22;7898;48.658;9.068;2023-01-30T14:01:19;1.80;99.90
15596;DHT22;7898;48.658;9.068;2023-01-30T14:03:49;1.80;99.90
15596;DHT22;7898;48.658;9.068;2023-01-30T14:06:34;1.80;99.90
15596;DHT22;7898;48.658;9.068;2023-01-30T14:09:15;1.80;99.90
15596;DHT22;7898;48.658;9.068;2023-01-30T14:11:47;1.80;99.90
15596;DHT22;7898;48.658;9.068;2023-01-30T14:14:29;1.80;99.90
15596;DHT22;7898;48.658;9.068;2023-01-30T14:17:07;1.70;99.90
15596;DHT22;7898;48.658;9.068;2023-01-30T14:19:59;1.70;99.90
15596;DHT22;7898;48.658;9.068;2023-01-30T14:22:49;1.40;99.90
15596;DHT22;7898;48.658;9.068;2023-01-30T14:25:48;1.60;99.90
15596;DHT22;7898;48.658;9.068;2023-01-30T14:28:48;1.60;99.90
15596;DHT22;7898;48.658;9.068;2023-01-30T14:40:33;1.50;99.90
15596;DHT22;7898;48.658;9.068;2023-01-30T14:46:37;1.50;99.90
15596;DHT22;7898;48.658;9.068;2023-01-30T14:51:58;1.50;99.90
15596;DHT22;7898;48.658;9.068;2023-01-30T14:54:39;1.60;99.90
15596;DHT22;7898;48.658;9.068;2023-01-30T14:57:22;1.50;99.90
15596;DHT22;7898;48.658;9.068;2023-01-30T14:59:52;1.50;99.90
15596;DHT22;7898;48.658;9.068;2023-01-30T15:02:23;1.50;99.90
15596;DHT22;7898;48.658;9.068;2023-01-30T15:05:00;1.60;99.90
15596;DHT22;7898;48.658;9.068;2023-01-30T15:07:29;1.50;99.90
15596;DHT22;7898;48.658;9.068;2023-01-30T15:09:59;1.40;99.90
15596;DHT22;7898;48.658;9.068;2023-01-30T15:12:48;1.50;99.90
15596;DHT22;7898;48.658;9.068;2023-01-30T15:15:25;1.50;99.90
15596;DHT22;7898;48.658;9.068;2023-01-30T15:18:29;1.50;99.90
15596;DHT22;7898;48.658;9.068;2023-01-30T15:21:22;1.60;99.90
15596;DHT22;7898;48.658;9.068;2023-01-30T15:26:47;1.60;99.90
15596;DHT22;7898;48.658;9.068;2023-01-30T15:29:44;1.70;99.90
15596;DHT22;7898;48.658;9.068;2023-01-30T15:32:17;1.70;99.90
15596;DHT22;7898;48.658;9.068;2023-01-30T15:34:53;1.70;99.90
15596;DHT22;7898;48.658;9.068;2023-01-30T15:37:32;1.70;99.90
15596;DHT22;7898;48.658;9.068;2023-01-30T15:40:20;1.80;99.90
15596;DHT22;7898;48.658;9.068;2023-01-30T15:42:48;1.90;99.90
15596;DHT22;7898;48.658;9.068;2023-01-30T15:45:26;1.90;99.90
15596;DHT22;7898;48.658;9.068;2023-01-30T15:48:07;2.00;99.90
15596;DHT22;7898;48.658;9.068;2023-01-30T15:50:38;2.00;99.90
15596;DHT22;7898;48.658;9.068;2023-01-30T15:53:12;2.00;99.90
15596;DHT22;7898;48.658;9.068;2023-01-30T15:55:41;2.00;99.90
15596;DHT22;7898;48.658;9.068;2023-01-30T15:58:11;2.20;99.90
15596;DHT22;7898;48.658;9.068;2023-01-30T16:00:44;2.00;99.90
15596;DHT22;7898;48.658;9.068;2023-01-30T16:03:14;1.90;99.90
15596;DHT22;7898;48.658;9.068;2023-01-30T16:05:46;1.90;99.90
15596;DHT22;7898;48.658;9.068;2023-01-30T16:08:18;1.90;99.90
15596;DHT22;7898;48.658;9.068;2023-01-30T16:10:46;2.00;99.90
15596;DHT22;7898;48.658;9.068;2023-01-30T16:13:14;1.90;99.90
15596;DHT22;7898;48.658;9.068;2023-01-30T16:15:46;1.90;99.90
15596;DHT22;7898;48.658;9.068;2023-01-30T16:18:23;1.90;99.90
15596;DHT22;7898;48.658;9.068;2023-01-30T16:20:55;1.90;99.90
15596;DHT22;7898;48.658;9.068;2023-01-30T16:23:26;1.90;99.90
15596;DHT22;7898;48.658;9.068;2023-01-30T16:25:54;2.00;99.90
15596;DHT22;7898;48.658;9.068;2023-01-30T16:28:21;2.00;99.90
15596;DHT22;7898;48.658;9.068;2023-01-30T16:30:57;2.00;99.90
15596;DHT22;7898;48.658;9.068;2023-01-30T16:33:25;2.00;99.90
15596;DHT22;7898;48.658;9.068;2023-01-30T16:35:52;2.20;99.90
15596;DHT22;7898;48.658;9.068;2023-01-30T16:38:34;2.10;99.90
15596;DHT22;7898;48.658;9.068;2023-01-30T16:41:01;2.10;99.90
15596;DHT22;7898;48.658;9.068;2023-01-30T16:43:29;2.00;99.90
15596;DHT22;7898;48.658;9.068;2023-01-30T16:49:14;1.90;99.90
15596;DHT22;7898;48.658;9.068;2023-01-30T16:51:43;1.90;99.90